createdAt,value
2022-09-01T00:01:38.495Z,82.71
2022-09-01T00:04:06.232Z,82.88
2022-09-01T00:06:33.629Z,82.69
2022-09-01T00:09:01.992Z,83.71
2022-09-01T00:11:29.859Z,83.05
2022-09-01T00:13:57.424Z,82.67
2022-09-01T00:16:24.291Z,82.63
2022-09-01T00:18:52.723Z,82.67
2022-09-01T00:21:21.450Z,82.76
2022-09-01T00:23:48.305Z,82.84
2022-09-01T00:26:15.323Z,82.84
2022-09-01T00:28:42.456Z,83.10
2022-09-01T00:31:09.957Z,82.72
2022-09-01T00:33:37.355Z,83.21
2022-09-01T00:36:05.189Z,83.63
2022-09-01T00:38:32.752Z,83.89
2022-09-01T00:41:00.104Z,84.48
2022-09-01T00:43:41.583Z,85.10
2022-09-01T00:46:10.301Z,85.46
2022-09-01T00:48:37.762Z,85.84
2022-09-01T00:51:05.573Z,86.03
2022-09-01T00:53:32.843Z,86.02
2022-09-01T00:55:59.935Z,86.80
2022-09-01T00:58:27.173Z,87.10
2022-09-01T01:00:54.146Z,86.83
2022-09-01T01:03:21.395Z,86.54
2022-09-01T01:05:51.188Z,86.78
2022-09-01T01:08:18.147Z,86.06
2022-09-01T01:10:45.201Z,86.45
2022-09-01T01:13:14.506Z,87.00
2022-09-01T01:15:41.715Z,88.15
2022-09-01T01:18:08.619Z,87.53
2022-09-01T01:20:35.469Z,88.18
2022-09-01T01:23:21.332Z,88.30
2022-09-01T01:25:56.428Z,88.03
2022-09-01T01:28:23.649Z,88.63
2022-09-01T01:30:56.188Z,88.93
2022-09-01T01:33:25.287Z,88.62
2022-09-01T01:35:53.402Z,88.10
2022-09-01T01:38:20.893Z,87.82
2022-09-01T01:40:50.755Z,88.79
2022-09-01T01:43:17.936Z,89.78
2022-09-01T01:45:44.830Z,89.59
2022-09-01T01:48:11.798Z,89.80
2022-09-01T01:50:39.571Z,89.65
2022-09-01T01:53:11.128Z,89.85
2022-09-01T01:55:40.014Z,89.04
2022-09-01T01:58:06.881Z,90.14
2022-09-01T02:00:34.531Z,90.13
2022-09-01T02:03:02.208Z,89.41
2022-09-01T02:05:30.996Z,90.10
2022-09-01T02:08:00.215Z,90.07
2022-09-01T02:10:30.229Z,89.39
2022-09-01T02:12:57.601Z,90.00
2022-09-01T02:15:24.461Z,89.47
2022-09-01T02:17:51.333Z,90.50
2022-09-01T02:20:18.251Z,91.38
2022-09-01T02:22:45.149Z,91.46
2022-09-01T02:25:12.472Z,90.73
2022-09-01T02:27:39.353Z,90.97
2022-09-01T02:30:07.294Z,90.33
2022-09-01T02:32:37.705Z,90.92
2022-09-01T02:35:06.144Z,90.35
2022-09-01T02:37:33.716Z,90.81
2022-09-01T02:40:00.578Z,90.92
2022-09-01T02:42:27.454Z,92.04
2022-09-01T02:44:54.916Z,92.11
2022-09-01T02:47:22.539Z,91.84
2022-09-01T02:49:50.149Z,91.31
2022-09-01T02:52:17.133Z,91.24
2022-09-01T02:54:44.222Z,90.11
2022-09-01T02:57:12.105Z,90.01
2022-09-01T02:59:43.627Z,89.75
2022-09-01T03:02:11.032Z,89.34
2022-09-01T03:04:37.960Z,89.65
2022-09-01T03:07:05.951Z,89.32
2022-09-01T03:09:32.847Z,89.67
2022-09-01T03:11:59.706Z,88.57
2022-09-01T03:14:26.517Z,89.76
2022-09-01T03:16:54.227Z,91.39
2022-09-01T03:19:21.157Z,91.10
2022-09-01T03:21:48.052Z,92.22
2022-09-01T03:24:18.761Z,91.89
2022-09-01T03:26:49.782Z,91.19
2022-09-01T03:29:17.849Z,91.10
2022-09-01T03:31:45.345Z,91.35
2022-09-01T03:34:12.484Z,91.06
2022-09-01T03:36:45.438Z,90.79
2022-09-01T03:39:16.524Z,90.01
2022-09-01T03:41:44.244Z,90.79
2022-09-01T03:44:12.099Z,91.54
2022-09-01T03:46:39.009Z,91.43
2022-09-01T03:49:06.247Z,91.21
2022-09-01T03:51:34.225Z,91.06
2022-09-01T03:54:01.755Z,90.79
2022-09-01T03:56:28.891Z,91.52
2022-09-01T03:58:57.206Z,91.98
2022-09-01T04:01:26.152Z,91.94
2022-09-01T04:03:53.331Z,91.91
2022-09-01T04:06:24.616Z,91.81
2022-09-01T04:08:52.301Z,92.34
2022-09-01T04:11:19.847Z,92.93
2022-09-01T04:13:48.345Z,93.52
2022-09-01T04:16:25.799Z,92.97
2022-09-01T04:18:52.735Z,91.33
2022-09-01T04:21:19.650Z,90.73
2022-09-01T04:23:46.528Z,90.76
2022-09-01T04:26:13.897Z,90.84
2022-09-01T04:28:43.129Z,92.45
2022-09-01T04:31:11.528Z,91.85
2022-09-01T04:33:38.482Z,92.20
2022-09-01T04:36:13.436Z,92.75
2022-09-01T04:38:40.337Z,93.21
2022-09-01T04:41:07.467Z,93.54
2022-09-01T04:43:34.554Z,92.83
2022-09-01T04:46:02.266Z,93.53
2022-09-01T04:48:29.651Z,93.70
2022-09-01T04:50:56.717Z,93.16
2022-09-01T04:53:28.748Z,92.43
2022-09-01T04:55:56.243Z,92.04
2022-09-01T04:58:25.438Z,91.46
2022-09-01T05:00:52.811Z,91.96
2022-09-01T05:03:20.519Z,91.73
2022-09-01T05:05:54.230Z,92.28
2022-09-01T05:08:22.123Z,91.43
2022-09-01T05:10:53.147Z,91.09
2022-09-01T05:13:30.797Z,90.65
2022-09-01T05:16:05.938Z,90.44
2022-09-01T05:18:33.100Z,90.43
2022-09-01T05:21:05.132Z,89.59
2022-09-01T05:23:31.980Z,88.45
2022-09-01T05:25:59.999Z,87.51
2022-09-01T05:28:26.999Z,87.22
2022-09-01T05:30:53.840Z,86.26
2022-09-01T05:33:21.907Z,86.07
2022-09-01T05:35:57.529Z,85.36
2022-09-01T05:38:24.444Z,85.22
2022-09-01T05:40:58.900Z,84.78
2022-09-01T05:43:26.318Z,83.87
2022-09-01T05:46:06.195Z,83.47
2022-09-01T05:48:35.123Z,83.08
2022-09-01T05:51:05.067Z,83.42
2022-09-01T05:53:33.562Z,82.60
2022-09-01T05:56:01.448Z,82.18
2022-09-01T05:59:22.558Z,81.77
2022-09-01T06:01:18.702Z,81.50
2022-09-01T06:03:45.932Z,81.50
2022-09-01T06:06:17.259Z,81.83
2022-09-01T06:08:46.713Z,81.76
2022-09-01T06:11:13.871Z,82.56
2022-09-01T06:13:41.081Z,80.71
2022-09-01T06:16:08.941Z,79.93
2022-09-01T06:18:36.582Z,79.24
2022-09-01T06:21:04.456Z,76.98
2022-09-01T06:23:31.400Z,77.52
2022-09-01T06:25:58.281Z,75.86
2022-09-01T06:28:25.519Z,75.35
2022-09-01T06:30:53.462Z,76.30
2022-09-01T06:33:20.375Z,75.99
2022-09-01T06:35:48.143Z,75.54
2022-09-01T06:38:18.652Z,75.93
2022-09-01T06:40:48.557Z,74.18
2022-09-01T06:43:19.558Z,73.48
2022-09-01T06:45:48.551Z,74.12
2022-09-01T06:48:15.557Z,72.49
2022-09-01T06:53:32.526Z,71.36
2022-09-01T06:56:00.280Z,72.58
2022-09-01T06:58:28.143Z,72.26
2022-09-01T07:00:55.092Z,69.89
2022-09-01T07:03:22.259Z,69.44
2022-09-01T07:06:09.811Z,69.17
2022-09-01T07:14:32.926Z,68.28
2022-09-01T07:19:48.867Z,66.75
2022-09-01T07:25:12.087Z,66.88
2022-09-01T07:27:50.192Z,66.61
2022-09-01T07:30:18.700Z,66.34
2022-09-01T07:32:48.981Z,65.33
2022-09-01T07:35:19.058Z,64.87
2022-09-01T07:43:41.505Z,63.90
2022-09-01T07:51:52.716Z,63.81
2022-09-01T07:54:21.083Z,62.74
2022-09-01T07:56:48.725Z,62.50
2022-09-01T07:59:16.086Z,62.26
2022-09-01T08:02:08.799Z,62.31
2022-09-01T08:04:36.056Z,62.15
2022-09-01T08:07:04.391Z,61.74
2022-09-01T08:09:37.423Z,60.94
2022-09-01T08:12:07.693Z,60.99
2022-09-01T08:14:41.091Z,61.88
2022-09-01T08:17:50.299Z,59.54
2022-09-01T08:20:14.389Z,59.71
2022-09-01T08:23:07.731Z,59.57
2022-09-01T08:25:37.035Z,59.73
2022-09-01T08:28:05.355Z,62.39
2022-09-01T08:30:34.265Z,59.13
2022-09-01T08:33:10.112Z,58.86
2022-09-01T08:35:41.096Z,58.57
2022-09-01T08:38:08.536Z,57.93
2022-09-01T08:40:36.669Z,58.33
2022-09-01T08:43:22.202Z,58.69
2022-09-01T08:45:51.019Z,60.07
2022-09-01T08:51:27.291Z,58.29
2022-09-01T08:54:01.142Z,57.92
2022-09-01T08:56:28.423Z,56.52
2022-09-01T08:58:56.524Z,56.02
2022-09-01T09:01:44.469Z,55.96
2022-09-01T09:04:30.266Z,55.76
2022-09-01T09:06:59.908Z,56.54
2022-09-01T09:09:34.637Z,56.73
2022-09-01T09:12:04.514Z,55.54
2022-09-01T09:14:49.939Z,56.47
2022-09-01T09:17:19.415Z,55.45
2022-09-01T09:19:46.264Z,55.04
2022-09-01T09:22:14.433Z,55.99
2022-09-01T09:24:44.275Z,53.74
2022-09-01T09:27:16.401Z,53.83
2022-09-01T09:29:45.463Z,51.53
2022-09-01T09:35:16.717Z,53.29
2022-09-01T09:37:44.760Z,53.83
2022-09-01T09:40:29.902Z,49.64
2022-09-01T09:42:56.788Z,50.05
2022-09-01T09:45:28.556Z,51.84
2022-09-01T09:47:56.979Z,48.51
2022-09-01T09:50:41.045Z,48.70
2022-09-01T09:53:11.778Z,49.17
2022-09-01T09:55:53.992Z,48.26
2022-09-01T09:58:25.294Z,45.74
2022-09-01T10:01:06.969Z,45.18
2022-09-01T10:03:35.593Z,45.84
2022-09-01T10:06:02.469Z,46.32
2022-09-01T10:08:29.994Z,46.36
2022-09-01T10:10:58.772Z,45.76
2022-09-01T10:13:28.294Z,45.89
2022-09-01T10:15:56.848Z,46.43
2022-09-01T10:18:29.409Z,47.94
2022-09-01T10:20:58.545Z,48.32
2022-09-01T10:23:27.385Z,47.85
2022-09-01T10:26:02.265Z,46.41
2022-09-01T10:28:33.894Z,46.71
2022-09-01T10:31:01.095Z,47.92
2022-09-01T10:33:27.978Z,48.67
2022-09-01T10:35:55.138Z,47.52
2022-09-01T10:38:25.082Z,47.28
2022-09-01T10:40:53.235Z,47.46
2022-09-01T10:43:23.198Z,46.63
2022-09-01T10:45:57.486Z,47.58
2022-09-01T10:48:31.949Z,48.06
2022-09-01T10:51:18.817Z,48.14
2022-09-01T10:53:46.976Z,47.53
2022-09-01T10:56:28.330Z,47.05
2022-09-01T10:59:41.810Z,47.18
2022-09-01T11:02:24.971Z,47.02
2022-09-01T11:04:59.643Z,47.30
2022-09-01T11:07:50.485Z,46.90
2022-09-01T11:10:36.965Z,47.42
2022-09-01T11:13:03.793Z,46.31
2022-09-01T11:15:31.278Z,46.46
2022-09-01T11:17:58.541Z,46.57
2022-09-01T11:20:31.215Z,46.14
2022-09-01T11:22:59.847Z,45.44
2022-09-01T11:25:39.953Z,43.62
2022-09-01T11:28:30.242Z,44.48
2022-09-01T11:30:57.061Z,44.69
2022-09-01T11:33:39.490Z,43.66
2022-09-01T11:36:12.154Z,44.73
2022-09-01T11:38:54.128Z,45.14
2022-09-01T11:41:27.009Z,44.85
2022-09-01T11:43:57.298Z,45.35
2022-09-01T11:46:29.262Z,44.96
2022-09-01T11:48:57.523Z,46.22
2022-09-01T11:51:24.739Z,44.60
2022-09-01T11:53:51.982Z,44.18
2022-09-01T11:56:24.264Z,43.63
2022-09-01T11:58:51.211Z,42.27
2022-09-01T12:01:18.024Z,42.00
2022-09-01T12:03:45.850Z,40.75
2022-09-01T12:06:18.223Z,39.69
2022-09-01T12:08:51.425Z,39.66
2022-09-01T12:11:26.049Z,39.05
2022-09-01T12:13:57.926Z,40.54
2022-09-01T12:16:25.003Z,41.12
2022-09-01T12:18:53.281Z,42.41
2022-09-01T12:21:25.900Z,43.84
2022-09-01T12:23:53.277Z,43.43
2022-09-01T12:26:23.644Z,42.40
2022-09-01T12:28:50.737Z,43.55
2022-09-01T12:31:19.673Z,43.89
2022-09-01T12:33:47.189Z,44.32
2022-09-01T12:36:22.731Z,44.22
2022-09-01T12:38:49.916Z,43.12
2022-09-01T12:41:45.842Z,43.29
2022-09-01T12:44:31.264Z,41.91
2022-09-01T12:47:06.092Z,42.73
2022-09-01T12:49:50.740Z,43.21
2022-09-01T12:52:20.009Z,43.86
2022-09-01T12:54:48.304Z,42.83
2022-09-01T12:57:44.805Z,42.83
2022-09-01T13:00:11.847Z,42.09
2022-09-01T13:02:41.133Z,41.67
2022-09-01T13:05:20.024Z,40.39
2022-09-01T13:07:46.863Z,41.16
2022-09-01T13:10:14.018Z,40.88
2022-09-01T13:12:41.749Z,40.88
2022-09-01T13:15:09.539Z,39.88
2022-09-01T13:17:36.384Z,40.54
2022-09-01T13:20:03.939Z,40.56
2022-09-01T13:22:30.792Z,39.99
2022-09-01T13:24:57.727Z,42.07
2022-09-01T13:27:24.589Z,41.04
2022-09-01T13:29:51.614Z,42.24
2022-09-01T13:32:20.956Z,39.72
2022-09-01T13:34:50.693Z,40.83
2022-09-01T13:37:20.430Z,40.58
2022-09-01T13:39:47.338Z,40.60
2022-09-01T13:42:14.895Z,40.84
2022-09-01T13:44:44.198Z,41.74
2022-09-01T13:50:09.252Z,40.20
2022-09-01T13:52:38.764Z,41.16
2022-09-01T13:55:06.394Z,42.46
2022-09-01T13:57:36.097Z,42.13
2022-09-01T14:00:08.622Z,39.67
2022-09-01T14:02:38.408Z,40.29
2022-09-01T14:05:05.381Z,42.66
2022-09-01T14:07:32.352Z,42.70
2022-09-01T14:09:59.227Z,40.60
2022-09-01T14:12:26.158Z,40.41
2022-09-01T14:17:41.240Z,40.89
2022-09-01T14:20:10.329Z,40.24
2022-09-01T14:22:38.594Z,42.38
2022-09-01T14:25:06.517Z,41.09
2022-09-01T14:27:33.348Z,41.14
2022-09-01T14:30:00.225Z,37.68
2022-09-01T14:32:28.065Z,40.39
2022-09-01T14:34:55.557Z,40.48
2022-09-01T14:37:22.440Z,39.90
2022-09-01T14:39:50.152Z,38.59
2022-09-01T14:42:17.427Z,39.92
2022-09-01T14:44:44.272Z,39.62
2022-09-01T14:47:12.242Z,40.17
2022-09-01T14:49:45.084Z,37.10
2022-09-01T14:52:12.492Z,38.90
2022-09-01T14:54:41.144Z,39.21
2022-09-01T14:59:54.990Z,39.62
2022-09-01T15:02:21.864Z,38.78
2022-09-01T15:04:48.803Z,39.48
2022-09-01T15:07:15.739Z,39.41
2022-09-01T15:09:42.741Z,39.09
2022-09-01T15:12:09.734Z,37.71
2022-09-01T15:14:36.940Z,38.45
2022-09-01T15:17:04.304Z,37.05
2022-09-01T15:19:32.211Z,35.32
2022-09-01T15:21:59.056Z,35.63
2022-09-01T15:24:25.959Z,35.50
2022-09-01T15:26:52.993Z,34.75
2022-09-01T15:29:19.835Z,34.08
2022-09-01T15:31:46.727Z,34.14
2022-09-01T15:34:13.636Z,33.97
2022-09-01T15:36:41.161Z,33.19
2022-09-01T15:39:08.919Z,34.45
2022-09-01T15:41:35.969Z,34.08
2022-09-01T15:44:06.976Z,34.65
2022-09-01T15:46:34.675Z,34.94
2022-09-01T15:49:02.577Z,35.34
2022-09-01T15:51:34.325Z,36.21
2022-09-01T15:54:03.833Z,37.42
2022-09-01T15:56:31.166Z,37.01
2022-09-01T15:59:02.271Z,38.22
2022-09-01T16:01:30.920Z,38.10
2022-09-01T16:03:57.811Z,38.44
2022-09-01T16:06:25.007Z,38.12
2022-09-01T16:08:52.131Z,38.76
2022-09-01T16:11:18.954Z,38.83
2022-09-01T16:13:45.829Z,39.07
2022-09-01T16:16:18.890Z,38.78
2022-09-01T16:19:04.733Z,38.88
2022-09-01T16:21:34.376Z,39.50
2022-09-01T16:24:07.269Z,38.46
2022-09-01T16:26:35.390Z,38.98
2022-09-01T16:29:03.768Z,39.60
2022-09-01T16:31:32.055Z,39.59
2022-09-01T16:34:00.301Z,39.14
2022-09-01T16:36:45.915Z,39.26
2022-09-01T16:39:26.333Z,39.84
2022-09-01T16:41:59.175Z,40.22
2022-09-01T16:44:38.988Z,39.73
2022-09-01T16:47:14.846Z,40.19
2022-09-01T16:49:49.423Z,41.56
2022-09-01T16:52:23.564Z,41.98
2022-09-01T16:55:09.322Z,41.93
2022-09-01T16:57:52.694Z,41.76
2022-09-01T17:00:22.813Z,41.87
2022-09-01T17:02:52.743Z,43.04
2022-09-01T17:05:19.591Z,42.92
2022-09-01T17:07:48.826Z,43.40
2022-09-01T17:10:24.857Z,43.61
2022-09-01T17:12:53.003Z,43.44
2022-09-01T17:15:26.079Z,43.26
2022-09-01T17:18:22.363Z,43.40
2022-09-01T17:20:58.408Z,43.72
2022-09-01T17:23:31.108Z,44.11
2022-09-01T17:25:59.726Z,44.49
2022-09-01T17:28:29.814Z,44.63
2022-09-01T17:31:10.461Z,44.50
2022-09-01T17:33:37.346Z,44.30
2022-09-01T17:36:07.140Z,44.68
2022-09-01T17:38:54.328Z,45.07
2022-09-01T17:41:36.261Z,45.99
2022-09-01T17:44:13.467Z,47.49
2022-09-01T17:46:45.179Z,46.68
2022-09-01T17:49:20.989Z,48.05
2022-09-01T17:51:57.978Z,48.75
2022-09-01T17:54:27.668Z,49.51
2022-09-01T17:56:54.490Z,50.09
2022-09-01T17:59:21.284Z,50.10
2022-09-01T18:01:48.152Z,50.26
2022-09-01T18:04:17.841Z,50.82
2022-09-01T18:06:51.333Z,51.53
2022-09-01T18:09:20.551Z,50.16
2022-09-01T18:11:51.403Z,50.78
2022-09-01T18:14:21.352Z,51.19
2022-09-01T18:17:01.666Z,50.16
2022-09-01T18:19:45.505Z,51.18
2022-09-01T18:22:17.008Z,51.46
2022-09-01T18:24:49.347Z,51.78
2022-09-01T18:27:16.179Z,52.06
2022-09-01T18:29:45.644Z,52.80
2022-09-01T18:32:15.687Z,52.94
2022-09-01T18:34:48.447Z,53.46
2022-09-01T18:37:25.335Z,53.73
2022-09-01T18:39:52.166Z,53.62
2022-09-01T18:42:30.620Z,53.79
2022-09-01T18:45:29.844Z,53.90
2022-09-01T18:48:00.138Z,53.78
2022-09-01T18:50:37.459Z,54.78
2022-09-01T18:53:29.151Z,55.26
2022-09-01T18:56:16.419Z,55.46
2022-09-01T18:58:43.230Z,55.00
2022-09-01T19:01:13.212Z,55.59
2022-09-01T19:03:43.277Z,55.95
2022-09-01T19:06:22.221Z,56.48
2022-09-01T19:09:07.452Z,56.47
2022-09-01T19:11:49.309Z,57.19
2022-09-01T19:14:18.903Z,57.06
2022-09-01T19:16:55.624Z,57.63
2022-09-01T19:19:28.149Z,57.16
2022-09-01T19:21:55.063Z,57.76
2022-09-01T19:24:33.319Z,57.06
2022-09-01T19:27:03.153Z,57.14
2022-09-01T19:29:33.247Z,56.11
2022-09-01T19:32:02.053Z,56.50
2022-09-01T19:34:39.281Z,57.53
2022-09-01T19:37:08.791Z,56.80
2022-09-01T19:39:37.632Z,57.82
2022-09-01T19:42:26.627Z,58.12
2022-09-01T19:44:59.643Z,58.42
2022-09-01T19:47:44.938Z,58.38
2022-09-01T19:50:30.184Z,59.67
2022-09-01T19:52:57.099Z,59.05
2022-09-01T19:55:44.214Z,59.72
2022-09-01T19:58:18.370Z,59.14
2022-09-01T20:00:48.959Z,57.45
2022-09-01T20:03:24.680Z,56.71
2022-09-01T20:05:57.630Z,56.72
2022-09-01T20:08:33.680Z,56.54
2022-09-01T20:11:07.371Z,56.32
2022-09-01T20:13:43.249Z,56.35
2022-09-01T20:16:13.166Z,55.77
2022-09-01T20:18:46.356Z,55.84
2022-09-01T20:21:20.831Z,55.79
2022-09-01T20:23:48.123Z,55.88
2022-09-01T20:26:18.045Z,56.09
2022-09-01T20:28:57.544Z,55.58
2022-09-01T20:31:30.169Z,56.03
2022-09-01T20:33:57.007Z,55.69
2022-09-01T20:36:29.776Z,55.92
2022-09-01T20:39:08.796Z,56.34
2022-09-01T20:41:40.139Z,56.17
2022-09-01T20:44:09.459Z,56.49
2022-09-01T20:46:36.377Z,56.40
2022-09-01T20:49:03.276Z,56.40
2022-09-01T20:51:30.081Z,56.52
2022-09-01T20:54:14.003Z,56.82
2022-09-01T20:56:40.820Z,57.16
2022-09-01T20:59:28.782Z,56.88
2022-09-01T21:02:05.803Z,57.63
2022-09-01T21:04:40.397Z,57.71
2022-09-01T21:07:15.847Z,57.74
2022-09-01T21:10:01.610Z,57.80
2022-09-01T21:12:45.524Z,57.85
2022-09-01T21:15:31.954Z,58.16
2022-09-01T21:18:01.833Z,58.45
2022-09-01T21:20:28.726Z,58.33
2022-09-01T21:22:55.944Z,58.53
2022-09-01T21:25:22.855Z,58.63
2022-09-01T21:27:53.011Z,58.90
2022-09-01T21:30:20.077Z,59.27
2022-09-01T21:32:47.340Z,59.24
2022-09-01T21:35:16.197Z,59.94
2022-09-01T21:37:43.042Z,59.17
2022-09-01T21:40:10.773Z,59.82
2022-09-01T21:42:52.897Z,60.42
2022-09-01T21:45:20.161Z,60.05
2022-09-01T21:47:48.278Z,61.12
2022-09-01T21:50:16.085Z,60.65
2022-09-01T21:52:43.010Z,61.15
2022-09-01T21:55:09.961Z,61.00
2022-09-01T21:57:37.292Z,61.43
2022-09-01T22:00:08.241Z,61.78
2022-09-01T22:02:42.823Z,61.75
2022-09-01T22:05:10.261Z,61.42
2022-09-01T22:07:37.976Z,61.54
2022-09-01T22:10:05.604Z,62.20
2022-09-01T22:12:32.495Z,62.60
2022-09-01T22:14:59.310Z,63.10
2022-09-01T22:17:26.141Z,63.28
2022-09-01T22:19:53.040Z,63.93
2022-09-01T22:22:19.929Z,63.68
2022-09-01T22:24:46.749Z,64.79
2022-09-01T22:27:13.673Z,65.41
2022-09-01T22:29:40.528Z,66.11
2022-09-01T22:32:07.411Z,66.39
2022-09-01T22:34:34.733Z,66.43
2022-09-01T22:37:01.697Z,65.75
2022-09-01T22:39:28.555Z,66.52
2022-09-01T22:41:55.425Z,66.72
2022-09-01T22:44:22.405Z,67.63
2022-09-01T22:46:49.262Z,66.76
2022-09-01T22:49:16.160Z,67.36
2022-09-01T22:51:43.394Z,67.59
2022-09-01T22:54:11.033Z,68.28
2022-09-01T22:56:38.257Z,68.85
2022-09-01T22:59:07.470Z,67.89
2022-09-01T23:01:35.932Z,68.81
2022-09-01T23:04:03.889Z,68.12
2022-09-01T23:06:31.457Z,69.03
2022-09-01T23:09:00.119Z,67.55
2022-09-01T23:11:27.364Z,66.92
2022-09-01T23:13:54.635Z,67.78
2022-09-01T23:16:25.319Z,68.38
2022-09-01T23:18:53.337Z,70.19
2022-09-01T23:21:21.623Z,69.55
2022-09-01T23:23:48.763Z,68.93
2022-09-01T23:26:25.944Z,70.87
2022-09-01T23:28:52.834Z,70.77
2022-09-01T23:31:21.356Z,70.83
2022-09-01T23:33:48.296Z,71.36
2022-09-01T23:36:16.207Z,71.30
2022-09-01T23:38:43.031Z,72.04
2022-09-01T23:41:11.647Z,71.41
2022-09-01T23:43:39.157Z,71.52
2022-09-01T23:46:06.975Z,71.78
2022-09-01T23:48:34.486Z,72.38
2022-09-01T23:51:06.049Z,72.06
2022-09-01T23:53:33.740Z,71.97
2022-09-01T23:56:01.989Z,72.34
2022-09-01T23:58:29.215Z,72.53
